sensor_id;sensor_type;location;lat;lon;timestamp;P1;durP1;ratioP1;P2;durP2;ratioP2
51515;SDS011;37603;55.614;37.326;2022-09-23T00:03:57;25.2;;;18.8;;
51515;SDS011;37603;55.614;37.326;2022-09-23T00:09:54;28.2;;;19.5;;
51515;SDS011;37603;55.614;37.326;2022-09-23T00:15:53;27.2;;;18.4;;
51515;SDS011;37603;55.614;37.326;2022-09-23T00:21:53;23.5;;;18.1;;
51515;SDS011;37603;55.614;37.326;2022-09-23T00:27:52;21.6;;;16.5;;
51515;SDS011;37603;55.614;37.326;2022-09-23T00:33:51;23.0;;;17.9;;
51515;SDS011;37603;55.614;37.326;2022-09-23T00:39:50;29.4;;;20.0;;
51515;SDS011;37603;55.614;37.326;2022-09-23T00:45:49;25.4;;;17.9;;
51515;SDS011;37603;55.614;37.326;2022-09-23T00:51:48;26.5;;;20.2;;
51515;SDS011;37603;55.614;37.326;2022-09-23T00:57:47;25.2;;;19.8;;
51515;SDS011;37603;55.614;37.326;2022-09-23T01:03:46;28.8;;;20.2;;
51515;SDS011;37603;55.614;37.326;2022-09-23T01:09:45;25.5;;;20.1;;
51515;SDS011;37603;55.614;37.326;2022-09-23T01:15:45;21.4;;;18.8;;
51515;SDS011;37603;55.614;37.326;2022-09-23T01:21:45;19.7;;;17.6;;
51515;SDS011;37603;55.614;37.326;2022-09-23T01:27:48;18.8;;;16.8;;
51515;SDS011;37603;55.614;37.326;2022-09-23T01:33:43;19.9;;;17.8;;
51515;SDS011;37603;55.614;37.326;2022-09-23T01:39:41;21.4;;;19.0;;
51515;SDS011;37603;55.614;37.326;2022-09-23T01:45:40;20.7;;;18.4;;
51515;SDS011;37603;55.614;37.326;2022-09-23T01:51:39;23.1;;;18.7;;
51515;SDS011;37603;55.614;37.326;2022-09-23T01:57:39;21.4;;;18.7;;
51515;SDS011;37603;55.614;37.326;2022-09-23T02:03:38;19.6;;;17.4;;
51515;SDS011;37603;55.614;37.326;2022-09-23T02:09:36;18.6;;;16.5;;
51515;SDS011;37603;55.614;37.326;2022-09-23T02:15:36;16.8;;;15.0;;
51515;SDS011;37603;55.614;37.326;2022-09-23T02:21:34;20.4;;;15.7;;
51515;SDS011;37603;55.614;37.326;2022-09-23T02:27:35;12.9;;;11.5;;
51515;SDS011;37603;55.614;37.326;2022-09-23T02:33:33;11.1;;;9.8;;
51515;SDS011;37603;55.614;37.326;2022-09-23T02:39:32;11.8;;;9.8;;
51515;SDS011;37603;55.614;37.326;2022-09-23T02:45:30;12.1;;;10.5;;
51515;SDS011;37603;55.614;37.326;2022-09-23T02:51:29;10.7;;;9.6;;
51515;SDS011;37603;55.614;37.326;2022-09-23T03:03:31;13.1;;;10.4;;
51515;SDS011;37603;55.614;37.326;2022-09-23T03:09:28;11.0;;;9.9;;
51515;SDS011;37603;55.614;37.326;2022-09-23T03:15:29;12.1;;;9.6;;
51515;SDS011;37603;55.614;37.326;2022-09-23T03:21:26;11.2;;;9.6;;
51515;SDS011;37603;55.614;37.326;2022-09-23T03:27:24;11.9;;;9.6;;
51515;SDS011;37603;55.614;37.326;2022-09-23T03:33:23;11.4;;;9.9;;
51515;SDS011;37603;55.614;37.326;2022-09-23T03:45:22;12.1;;;10.7;;
51515;SDS011;37603;55.614;37.326;2022-09-23T03:51:21;14.2;;;11.5;;
51515;SDS011;37603;55.614;37.326;2022-09-23T03:57:20;13.4;;;10.6;;
51515;SDS011;37603;55.614;37.326;2022-09-23T04:03:18;14.9;;;12.5;;
51515;SDS011;37603;55.614;37.326;2022-09-23T04:09:18;15.7;;;11.3;;
51515;SDS011;37603;55.614;37.326;2022-09-23T04:15:17;13.1;;;10.7;;
51515;SDS011;37603;55.614;37.326;2022-09-23T04:21:16;14.5;;;10.2;;
51515;SDS011;37603;55.614;37.326;2022-09-23T04:27:15;11.4;;;9.1;;
51515;SDS011;37603;55.614;37.326;2022-09-23T04:33:14;10.1;;;8.2;;
51515;SDS011;37603;55.614;37.326;2022-09-23T04:39:14;9.9;;;7.8;;
51515;SDS011;37603;55.614;37.326;2022-09-23T04:45:12;9.6;;;7.0;;
51515;SDS011;37603;55.614;37.326;2022-09-23T04:51:12;8.5;;;7.0;;
51515;SDS011;37603;55.614;37.326;2022-09-23T04:57:10;9.1;;;7.1;;
51515;SDS011;37603;55.614;37.326;2022-09-23T05:03:09;7.5;;;6.6;;
51515;SDS011;37603;55.614;37.326;2022-09-23T05:09:09;8.9;;;7.4;;
51515;SDS011;37603;55.614;37.326;2022-09-23T05:15:07;9.1;;;7.2;;
51515;SDS011;37603;55.614;37.326;2022-09-23T05:21:07;8.7;;;7.0;;
51515;SDS011;37603;55.614;37.326;2022-09-23T05:27:06;10.1;;;6.9;;
51515;SDS011;37603;55.614;37.326;2022-09-23T05:33:05;9.4;;;6.4;;
51515;SDS011;37603;55.614;37.326;2022-09-23T05:39:04;7.7;;;6.2;;
51515;SDS011;37603;55.614;37.326;2022-09-23T05:45:03;9.5;;;6.4;;
51515;SDS011;37603;55.614;37.326;2022-09-23T05:51:03;8.9;;;6.3;;
51515;SDS011;37603;55.614;37.326;2022-09-23T05:57:02;5.2;;;4.2;;
51515;SDS011;37603;55.614;37.326;2022-09-23T06:03:00;4.3;;;3.3;;
51515;SDS011;37603;55.614;37.326;2022-09-23T06:09:00;4.5;;;3.2;;
51515;SDS011;37603;55.614;37.326;2022-09-23T06:14:59;5.0;;;3.2;;
51515;SDS011;37603;55.614;37.326;2022-09-23T06:20:59;4.5;;;3.6;;
51515;SDS011;37603;55.614;37.326;2022-09-23T06:26:57;6.4;;;3.7;;
51515;SDS011;37603;55.614;37.326;2022-09-23T06:32:56;5.8;;;3.9;;
51515;SDS011;37603;55.614;37.326;2022-09-23T06:38:55;4.3;;;3.4;;
51515;SDS011;37603;55.614;37.326;2022-09-23T06:44:54;5.3;;;3.5;;
51515;SDS011;37603;55.614;37.326;2022-09-23T06:50:57;3.9;;;3.1;;
51515;SDS011;37603;55.614;37.326;2022-09-23T06:56:53;3.8;;;2.8;;
51515;SDS011;37603;55.614;37.326;2022-09-23T07:02:52;3.6;;;2.8;;
51515;SDS011;37603;55.614;37.326;2022-09-23T07:08:51;3.7;;;3.0;;
51515;SDS011;37603;55.614;37.326;2022-09-23T07:14:51;3.5;;;2.9;;
51515;SDS011;37603;55.614;37.326;2022-09-23T07:20:50;4.0;;;3.3;;
51515;SDS011;37603;55.614;37.326;2022-09-23T07:26:49;5.4;;;4.0;;
51515;SDS011;37603;55.614;37.326;2022-09-23T07:32:48;4.8;;;4.0;;
51515;SDS011;37603;55.614;37.326;2022-09-23T07:38:48;5.4;;;3.5;;
51515;SDS011;37603;55.614;37.326;2022-09-23T07:44:47;4.8;;;3.4;;
51515;SDS011;37603;55.614;37.326;2022-09-23T07:56:46;5.3;;;3.8;;
51515;SDS011;37603;55.614;37.326;2022-09-23T08:02:45;6.0;;;4.1;;
51515;SDS011;37603;55.614;37.326;2022-09-23T08:08:44;8.6;;;5.0;;
51515;SDS011;37603;55.614;37.326;2022-09-23T08:14:43;5.5;;;4.3;;
51515;SDS011;37603;55.614;37.326;2022-09-23T08:20:43;6.6;;;4.7;;
51515;SDS011;37603;55.614;37.326;2022-09-23T08:26:42;8.3;;;4.7;;
51515;SDS011;37603;55.614;37.326;2022-09-23T08:32:41;6.8;;;4.9;;
51515;SDS011;37603;55.614;37.326;2022-09-23T08:38:40;7.8;;;5.0;;
51515;SDS011;37603;55.614;37.326;2022-09-23T08:44:42;7.1;;;5.0;;
51515;SDS011;37603;55.614;37.326;2022-09-23T08:50:40;6.4;;;5.0;;
51515;SDS011;37603;55.614;37.326;2022-09-23T08:56:38;9.1;;;5.8;;
51515;SDS011;37603;55.614;37.326;2022-09-23T09:02:38;8.5;;;5.6;;
51515;SDS011;37603;55.614;37.326;2022-09-23T09:08:37;7.4;;;5.4;;
51515;SDS011;37603;55.614;37.326;2022-09-23T09:14:38;6.1;;;4.7;;
51515;SDS011;37603;55.614;37.326;2022-09-23T09:20:37;5.1;;;4.4;;
51515;SDS011;37603;55.614;37.326;2022-09-23T09:26:35;4.8;;;3.7;;
51515;SDS011;37603;55.614;37.326;2022-09-23T09:32:35;6.5;;;4.1;;
51515;SDS011;37603;55.614;37.326;2022-09-23T09:38:33;7.0;;;5.0;;
51515;SDS011;37603;55.614;37.326;2022-09-23T09:44:34;7.1;;;4.6;;
51515;SDS011;37603;55.614;37.326;2022-09-23T09:50:40;5.3;;;3.9;;
51515;SDS011;37603;55.614;37.326;2022-09-23T09:56:32;5.1;;;3.6;;
51515;SDS011;37603;55.614;37.326;2022-09-23T10:02:32;7.4;;;3.8;;
51515;SDS011;37603;55.614;37.326;2022-09-23T10:08:30;7.1;;;4.0;;
51515;SDS011;37603;55.614;37.326;2022-09-23T10:14:29;5.6;;;4.0;;
51515;SDS011;37603;55.614;37.326;2022-09-23T10:20:30;5.5;;;4.0;;
51515;SDS011;37603;55.614;37.326;2022-09-23T10:26:28;6.3;;;3.9;;
51515;SDS011;37603;55.614;37.326;2022-09-23T10:32:28;8.3;;;4.8;;
51515;SDS011;37603;55.614;37.326;2022-09-23T10:38:26;6.3;;;4.2;;
51515;SDS011;37603;55.614;37.326;2022-09-23T10:44:28;7.0;;;4.2;;
51515;SDS011;37603;55.614;37.326;2022-09-23T10:50:31;7.3;;;5.1;;
51515;SDS011;37603;55.614;37.326;2022-09-23T11:02:29;6.9;;;4.7;;
51515;SDS011;37603;55.614;37.326;2022-09-23T11:08:27;5.3;;;4.0;;
51515;SDS011;37603;55.614;37.326;2022-09-23T11:14:25;5.6;;;4.0;;
51515;SDS011;37603;55.614;37.326;2022-09-23T11:26:23;7.3;;;4.5;;
51515;SDS011;37603;55.614;37.326;2022-09-23T11:32:24;4.9;;;4.0;;
51515;SDS011;37603;55.614;37.326;2022-09-23T11:38:19;7.5;;;5.3;;
51515;SDS011;37603;55.614;37.326;2022-09-23T11:44:18;7.3;;;4.6;;
51515;SDS011;37603;55.614;37.326;2022-09-23T11:50:18;5.3;;;4.3;;
51515;SDS011;37603;55.614;37.326;2022-09-23T11:56:17;5.7;;;3.8;;
51515;SDS011;37603;55.614;37.326;2022-09-23T12:02:17;6.5;;;3.8;;
51515;SDS011;37603;55.614;37.326;2022-09-23T12:08:18;4.9;;;3.9;;
51515;SDS011;37603;55.614;37.326;2022-09-23T12:14:15;5.8;;;3.9;;
51515;SDS011;37603;55.614;37.326;2022-09-23T12:20:18;3.8;;;3.0;;
51515;SDS011;37603;55.614;37.326;2022-09-23T12:26:13;6.8;;;3.0;;
51515;SDS011;37603;55.614;37.326;2022-09-23T12:32:15;5.8;;;2.9;;
51515;SDS011;37603;55.614;37.326;2022-09-23T12:38:11;6.2;;;3.0;;
51515;SDS011;37603;55.614;37.326;2022-09-23T12:44:13;4.5;;;2.9;;
51515;SDS011;37603;55.614;37.326;2022-09-23T12:56:13;3.7;;;2.8;;
51515;SDS011;37603;55.614;37.326;2022-09-23T13:02:12;4.2;;;3.2;;
51515;SDS011;37603;55.614;37.326;2022-09-23T13:08:08;3.6;;;2.9;;
51515;SDS011;37603;55.614;37.326;2022-09-23T13:14:06;4.4;;;2.9;;
51515;SDS011;37603;55.614;37.326;2022-09-23T13:20:30;4.5;;;3.2;;
51515;SDS011;37603;55.614;37.326;2022-09-23T13:26:08;5.3;;;3.1;;
51515;SDS011;37603;55.614;37.326;2022-09-23T13:32:04;4.3;;;3.1;;
51515;SDS011;37603;55.614;37.326;2022-09-23T13:38:09;4.9;;;3.2;;
51515;SDS011;37603;55.614;37.326;2022-09-23T13:44:03;4.6;;;3.6;;
51515;SDS011;37603;55.614;37.326;2022-09-23T13:50:02;5.9;;;3.8;;
51515;SDS011;37603;55.614;37.326;2022-09-23T13:56:02;6.1;;;4.5;;
51515;SDS011;37603;55.614;37.326;2022-09-23T14:02:01;7.4;;;4.4;;
51515;SDS011;37603;55.614;37.326;2022-09-23T14:08:00;6.2;;;4.0;;
51515;SDS011;37603;55.614;37.326;2022-09-23T14:19:58;8.0;;;4.3;;
51515;SDS011;37603;55.614;37.326;2022-09-23T14:25:57;7.5;;;5.0;;
51515;SDS011;37603;55.614;37.326;2022-09-23T14:31:57;8.1;;;4.7;;
51515;SDS011;37603;55.614;37.326;2022-09-23T14:37:56;7.6;;;5.0;;
51515;SDS011;37603;55.614;37.326;2022-09-23T14:43:56;6.5;;;4.6;;
51515;SDS011;37603;55.614;37.326;2022-09-23T14:49:54;6.6;;;4.8;;
51515;SDS011;37603;55.614;37.326;2022-09-23T14:55:54;7.4;;;5.2;;
51515;SDS011;37603;55.614;37.326;2022-09-23T15:01:53;6.8;;;5.2;;
51515;SDS011;37603;55.614;37.326;2022-09-23T15:07:54;7.6;;;5.2;;
51515;SDS011;37603;55.614;37.326;2022-09-23T15:13:51;8.7;;;5.3;;
51515;SDS011;37603;55.614;37.326;2022-09-23T15:19:51;8.9;;;5.7;;
51515;SDS011;37603;55.614;37.326;2022-09-23T15:25:50;7.6;;;5.4;;
51515;SDS011;37603;55.614;37.326;2022-09-23T15:31:49;10.4;;;5.9;;
51515;SDS011;37603;55.614;37.326;2022-09-23T15:37:48;8.7;;;4.7;;
51515;SDS011;37603;55.614;37.326;2022-09-23T15:43:48;6.2;;;4.0;;
51515;SDS011;37603;55.614;37.326;2022-09-23T15:49:47;7.2;;;3.9;;
51515;SDS011;37603;55.614;37.326;2022-09-23T15:55:46;10.9;;;5.0;;
51515;SDS011;37603;55.614;37.326;2022-09-23T16:01:45;7.6;;;4.3;;
51515;SDS011;37603;55.614;37.326;2022-09-23T16:07:44;8.1;;;4.3;;
51515;SDS011;37603;55.614;37.326;2022-09-23T16:13:44;8.0;;;3.8;;
51515;SDS011;37603;55.614;37.326;2022-09-23T16:19:43;7.5;;;4.4;;
51515;SDS011;37603;55.614;37.326;2022-09-23T16:25:42;12.8;;;4.7;;
51515;SDS011;37603;55.614;37.326;2022-09-23T16:31:41;6.6;;;4.3;;
51515;SDS011;37603;55.614;37.326;2022-09-23T16:37:41;6.3;;;3.8;;
51515;SDS011;37603;55.614;37.326;2022-09-23T16:43:40;7.0;;;4.4;;
51515;SDS011;37603;55.614;37.326;2022-09-23T16:49:40;6.7;;;3.8;;
51515;SDS011;37603;55.614;37.326;2022-09-23T16:55:38;4.8;;;4.0;;
51515;SDS011;37603;55.614;37.326;2022-09-23T17:01:37;6.0;;;3.9;;
51515;SDS011;37603;55.614;37.326;2022-09-23T17:07:36;6.5;;;4.0;;
51515;SDS011;37603;55.614;37.326;2022-09-23T17:13:35;5.5;;;4.4;;
51515;SDS011;37603;55.614;37.326;2022-09-23T17:19:36;6.4;;;4.8;;
51515;SDS011;37603;55.614;37.326;2022-09-23T17:25:34;6.3;;;4.5;;
51515;SDS011;37603;55.614;37.326;2022-09-23T17:31:33;7.3;;;4.5;;
51515;SDS011;37603;55.614;37.326;2022-09-23T17:37:32;7.1;;;4.6;;
51515;SDS011;37603;55.614;37.326;2022-09-23T17:43:31;6.4;;;5.0;;
51515;SDS011;37603;55.614;37.326;2022-09-23T17:49:30;7.0;;;4.8;;
51515;SDS011;37603;55.614;37.326;2022-09-23T17:55:29;8.2;;;4.9;;
51515;SDS011;37603;55.614;37.326;2022-09-23T18:01:29;7.8;;;5.4;;
51515;SDS011;37603;55.614;37.326;2022-09-23T18:07:28;7.6;;;5.5;;
51515;SDS011;37603;55.614;37.326;2022-09-23T18:13:27;9.0;;;5.2;;
51515;SDS011;37603;55.614;37.326;2022-09-23T18:19:26;7.7;;;5.0;;
51515;SDS011;37603;55.614;37.326;2022-09-23T18:25:25;6.6;;;5.5;;
51515;SDS011;37603;55.614;37.326;2022-09-23T18:31:25;7.5;;;5.0;;
51515;SDS011;37603;55.614;37.326;2022-09-23T18:37:24;8.8;;;6.0;;
51515;SDS011;37603;55.614;37.326;2022-09-23T18:43:24;7.0;;;4.8;;
51515;SDS011;37603;55.614;37.326;2022-09-23T18:49:22;7.8;;;5.2;;
51515;SDS011;37603;55.614;37.326;2022-09-23T18:55:21;8.5;;;5.0;;
51515;SDS011;37603;55.614;37.326;2022-09-23T19:01:21;9.6;;;5.8;;
51515;SDS011;37603;55.614;37.326;2022-09-23T19:07:19;7.9;;;5.3;;
51515;SDS011;37603;55.614;37.326;2022-09-23T19:13:19;6.2;;;5.0;;
51515;SDS011;37603;55.614;37.326;2022-09-23T19:19:18;7.4;;;5.2;;
51515;SDS011;37603;55.614;37.326;2022-09-23T19:25:17;6.6;;;5.0;;
51515;SDS011;37603;55.614;37.326;2022-09-23T19:31:17;7.1;;;5.5;;
51515;SDS011;37603;55.614;37.326;2022-09-23T19:37:15;6.5;;;5.5;;
51515;SDS011;37603;55.614;37.326;2022-09-23T19:43:15;7.5;;;5.6;;
51515;SDS011;37603;55.614;37.326;2022-09-23T19:49:14;8.4;;;6.3;;
51515;SDS011;37603;55.614;37.326;2022-09-23T19:55:13;9.3;;;6.8;;
51515;SDS011;37603;55.614;37.326;2022-09-23T20:01:12;7.8;;;6.6;;
51515;SDS011;37603;55.614;37.326;2022-09-23T20:07:11;6.9;;;5.5;;
51515;SDS011;37603;55.614;37.326;2022-09-23T20:13:10;7.4;;;6.0;;
51515;SDS011;37603;55.614;37.326;2022-09-23T20:19:10;6.8;;;5.8;;
51515;SDS011;37603;55.614;37.326;2022-09-23T20:25:09;8.2;;;6.2;;
51515;SDS011;37603;55.614;37.326;2022-09-23T20:31:08;8.9;;;6.3;;
51515;SDS011;37603;55.614;37.326;2022-09-23T20:37:07;8.5;;;6.0;;
51515;SDS011;37603;55.614;37.326;2022-09-23T20:43:06;7.1;;;5.7;;
51515;SDS011;37603;55.614;37.326;2022-09-23T20:49:05;8.2;;;5.8;;
51515;SDS011;37603;55.614;37.326;2022-09-23T20:55:05;7.5;;;6.1;;
51515;SDS011;37603;55.614;37.326;2022-09-23T21:01:04;8.4;;;7.2;;
51515;SDS011;37603;55.614;37.326;2022-09-23T21:07:03;9.1;;;7.8;;
51515;SDS011;37603;55.614;37.326;2022-09-23T21:13:02;9.6;;;7.0;;
51515;SDS011;37603;55.614;37.326;2022-09-23T21:19:01;9.1;;;6.6;;
51515;SDS011;37603;55.614;37.326;2022-09-23T21:25:00;9.0;;;7.2;;
51515;SDS011;37603;55.614;37.326;2022-09-23T21:31:00;7.9;;;6.6;;
51515;SDS011;37603;55.614;37.326;2022-09-23T21:36:58;7.3;;;6.4;;
51515;SDS011;37603;55.614;37.326;2022-09-23T21:42:57;10.6;;;6.9;;
51515;SDS011;37603;55.614;37.326;2022-09-23T21:48:57;8.8;;;7.0;;
51515;SDS011;37603;55.614;37.326;2022-09-23T21:54:56;8.3;;;7.4;;
51515;SDS011;37603;55.614;37.326;2022-09-23T22:00:55;8.7;;;7.2;;
51515;SDS011;37603;55.614;37.326;2022-09-23T22:06:54;9.7;;;8.1;;
51515;SDS011;37603;55.614;37.326;2022-09-23T22:12:53;10.4;;;8.5;;
51515;SDS011;37603;55.614;37.326;2022-09-23T22:18:52;9.5;;;8.3;;
51515;SDS011;37603;55.614;37.326;2022-09-23T22:24:51;11.0;;;9.0;;
51515;SDS011;37603;55.614;37.326;2022-09-23T22:30:50;12.3;;;8.8;;
51515;SDS011;37603;55.614;37.326;2022-09-23T22:36:50;12.0;;;9.6;;
51515;SDS011;37603;55.614;37.326;2022-09-23T22:42:49;11.9;;;9.3;;
51515;SDS011;37603;55.614;37.326;2022-09-23T22:48:48;12.7;;;10.1;;
51515;SDS011;37603;55.614;37.326;2022-09-23T22:54:47;15.1;;;11.3;;
51515;SDS011;37603;55.614;37.326;2022-09-23T23:00:46;13.6;;;10.3;;
51515;SDS011;37603;55.614;37.326;2022-09-23T23:06:45;12.2;;;10.0;;
51515;SDS011;37603;55.614;37.326;2022-09-23T23:12:44;13.1;;;10.4;;
51515;SDS011;37603;55.614;37.326;2022-09-23T23:18:43;13.7;;;10.4;;
51515;SDS011;37603;55.614;37.326;2022-09-23T23:24:42;12.4;;;9.9;;
51515;SDS011;37603;55.614;37.326;2022-09-23T23:30:41;10.4;;;8.8;;
51515;SDS011;37603;55.614;37.326;2022-09-23T23:36:40;10.8;;;8.6;;
51515;SDS011;37603;55.614;37.326;2022-09-23T23:42:39;11.0;;;8.2;;
51515;SDS011;37603;55.614;37.326;2022-09-23T23:48:39;9.5;;;7.4;;
51515;SDS011;37603;55.614;37.326;2022-09-23T23:54:37;7.9;;;7.0;;
